Shurdington, United Kingdom
Current Conditions -  °F | °C
As of 12:20 PM on Friday 24 Oct 2014 (Local Time) from EGBJ Reporting Station
Light Rain Light Rain  
Wind Chill: 59°   Ceiling: 1400
Heat Index: 59°   Visibility: 6mi
Dew Point: 59°   Wind: 7mph
Humidity: 100%   Direction: 200°SSW
Pressure: 29.91"   Gusts: NA
Location:  51.86°N, 2.12°W
Report Text: EGBJ 241120Z 20006KT 9999 -RA SCT008 BKN014 15/15 Q1013 RERA
Loading
Personal Weather Stations






























Interactive Weather Map
Tropical Storm Tracking
New forecast layout! Learn more

10-Day Weather Forecast

Advertisements
Track Severe Weather on mobile